Terminal Aerodrome Forecast
Issued by NWS

Current Version | Previous Version | Graphics & Text | Print | Product List | Glossary Off
Versions: 1 2 3 4 5 6 7 8 9 10 11 12 13 14 15 16 17

000
FTUS41 KILN 281100
TAFLUK
TAF
KLUK 281125Z 2812/2912 00000KT 4SM BR SKC
     FM281400 15004KT P6SM SCT250
     FM282100 12005KT P6SM OVC200
     FM290900 18007KT P6SM BKN060 OVC120=

USA.gov is the U.S. government's official web portal to all federal, state and local government web resources and services.